KADM/ADM METAR and TAF weather

Enter ICAO airport designator
Station Type Date Time Source
KADM METAR 2020/07/07 08:55 UTC NOAA

KADM 070855Z AUTO 00000KT 5SM BR SCT070 22/22 A2995 RMK AO2 T02200220


Station Type Date Time Source
KADM Decoded METAR 2020/07/07 08:55 UTC NOAA

Ardmore, Ardmore Municipal Airport, OK, United States (KADM) 34-18-11N 097-01-10W
Jul 07, 2020 - 04:55 AM EDT / 2020.07.07 0855 UTC
Wind: Calm:0
Visibility: 5 mile(s):0
Sky conditions: partly cloudy
Weather: mist
Temperature: 71.6 F (22.0 C)
Dew Point: 71.6 F (22.0 C)
Relative Humidity: 100%
Pressure (altimeter): 29.95 in. Hg (1014 hPa)
ob: KADM 070855Z AUTO 00000KT 5SM BR SCT070 22/22 A2995 RMK AO2 T02200220
cycle: 9

Station Type Date Time Source
KADM TAF UTC NOAA

Error!

Example: see airport list